createdAt,value
2024-04-24T00:01:46.679Z,60.23
2024-04-24T00:04:14.317Z,60.61
2024-04-24T00:06:41.891Z,61.26
2024-04-24T00:09:09.481Z,61.52
2024-04-24T00:11:39.834Z,61.13
2024-04-24T00:14:07.351Z,61.13
2024-04-24T00:16:34.770Z,61.57
2024-04-24T00:19:02.238Z,62.29
2024-04-24T00:21:29.590Z,61.90
2024-04-24T00:23:57.167Z,62.51
2024-04-24T00:26:24.774Z,62.56
2024-04-24T00:28:55.019Z,61.87
2024-04-24T00:31:22.571Z,62.12
2024-04-24T00:33:50.221Z,62.70
2024-04-24T00:36:17.796Z,62.90
2024-04-24T00:38:45.376Z,62.91
2024-04-24T00:41:13.047Z,63.04
2024-04-24T00:43:40.449Z,63.36
2024-04-24T00:46:10.548Z,63.53
2024-04-24T00:48:38.231Z,63.89
2024-04-24T00:51:05.955Z,63.56
2024-04-24T00:53:33.394Z,63.63
2024-04-24T00:56:00.818Z,63.72
2024-04-24T00:58:28.268Z,63.49
2024-04-24T01:00:56.219Z,63.45
2024-04-24T01:03:26.462Z,63.65
2024-04-24T01:05:54.024Z,63.13
2024-04-24T01:08:21.517Z,63.38
2024-04-24T01:10:55.438Z,63.84
2024-04-24T01:13:23.030Z,63.93
2024-04-24T01:15:51.068Z,63.78
2024-04-24T01:18:18.841Z,63.42
2024-04-24T01:20:48.950Z,63.21
2024-04-24T01:23:22.548Z,63.70
2024-04-24T01:25:53.288Z,64.09
2024-04-24T01:28:23.587Z,64.30
2024-04-24T01:30:51.678Z,64.20
2024-04-24T01:33:19.326Z,64.04
2024-04-24T01:35:46.879Z,64.65
2024-04-24T01:38:14.260Z,64.01
2024-04-24T01:40:42.046Z,63.96
2024-04-24T01:43:09.505Z,64.56
2024-04-24T01:45:39.696Z,64.29
2024-04-24T01:48:07.902Z,63.67
2024-04-24T01:50:35.646Z,63.99
2024-04-24T01:53:03.493Z,64.02
2024-04-24T01:55:31.145Z,63.64
2024-04-24T01:57:58.540Z,63.62
2024-04-24T02:00:26.069Z,63.64
2024-04-24T02:02:56.231Z,63.85
2024-04-24T02:05:23.643Z,63.94
2024-04-24T02:07:51.148Z,63.77
2024-04-24T02:10:18.477Z,63.92
2024-04-24T02:12:46.062Z,63.78
2024-04-24T02:15:13.758Z,63.72
2024-04-24T02:17:41.320Z,63.62
2024-04-24T02:20:11.554Z,63.79
2024-04-24T02:22:38.911Z,63.40
2024-04-24T02:25:07.043Z,63.17
2024-04-24T02:27:34.490Z,63.21
2024-04-24T02:30:01.971Z,63.40
2024-04-24T02:32:29.516Z,63.35
2024-04-24T02:34:57.224Z,63.52
2024-04-24T02:37:27.294Z,63.73
2024-04-24T02:39:54.653Z,63.40
2024-04-24T02:42:22.275Z,63.39
2024-04-24T02:44:49.756Z,63.42
2024-04-24T02:47:17.399Z,62.81
2024-04-24T02:49:44.981Z,62.55
2024-04-24T02:52:12.773Z,62.40
2024-04-24T02:54:42.765Z,62.38
2024-04-24T02:57:10.163Z,62.14
2024-04-24T02:59:37.596Z,62.26
2024-04-24T03:02:05.157Z,62.26
2024-04-24T03:04:32.568Z,62.32
2024-04-24T03:06:59.927Z,61.94
2024-04-24T03:09:28.182Z,62.37
2024-04-24T03:11:59.057Z,61.64
2024-04-24T03:14:26.965Z,61.34
2024-04-24T03:16:54.392Z,61.11
2024-04-24T03:19:21.882Z,61.02
2024-04-24T03:21:49.282Z,60.69
2024-04-24T03:24:16.767Z,60.72
2024-04-24T03:26:44.195Z,60.86
2024-04-24T03:29:15.013Z,60.39
2024-04-24T03:31:43.427Z,60.84
2024-04-24T03:34:10.821Z,60.54
2024-04-24T03:36:38.151Z,60.78
2024-04-24T03:39:05.812Z,60.22
2024-04-24T03:41:33.215Z,60.02
2024-04-24T03:44:00.761Z,60.37
2024-04-24T03:46:30.847Z,60.11
2024-04-24T03:48:58.264Z,60.17
2024-04-24T03:51:25.854Z,60.77
2024-04-24T03:53:53.317Z,60.91
2024-04-24T03:56:21.298Z,60.86
2024-04-24T03:58:48.979Z,60.87
2024-04-24T04:01:16.594Z,60.89
2024-04-24T04:03:46.664Z,62.38
2024-04-24T04:06:14.007Z,62.09
2024-04-24T04:08:41.432Z,61.68
2024-04-24T04:11:08.900Z,61.64
2024-04-24T04:13:36.389Z,61.46
2024-04-24T04:16:03.994Z,61.61
2024-04-24T04:18:31.840Z,61.47
2024-04-24T04:21:01.919Z,61.23
2024-04-24T04:23:29.584Z,61.53
2024-04-24T04:25:57.057Z,61.27
2024-04-24T04:28:24.446Z,61.17
2024-04-24T04:30:51.898Z,61.15
2024-04-24T04:33:19.495Z,61.38
2024-04-24T04:35:46.913Z,61.81
2024-04-24T04:38:16.950Z,61.67
2024-04-24T04:40:44.321Z,61.68
2024-04-24T04:43:11.958Z,61.79
2024-04-24T04:45:39.286Z,61.68
2024-04-24T04:48:07.585Z,61.30
2024-04-24T04:50:35.289Z,61.40
2024-04-24T04:53:02.799Z,60.77
2024-04-24T04:55:33.059Z,61.23
2024-04-24T04:58:01.154Z,61.18
2024-04-24T05:00:28.739Z,61.23
2024-04-24T05:02:56.316Z,61.40
2024-04-24T05:05:23.861Z,61.37
2024-04-24T05:07:51.472Z,61.79
2024-04-24T05:10:18.890Z,61.43
2024-04-24T05:12:49.001Z,62.90
2024-04-24T05:15:16.627Z,61.97
2024-04-24T05:17:44.257Z,62.40
2024-04-24T05:20:11.877Z,62.06
2024-04-24T05:22:39.324Z,62.12
2024-04-24T05:25:07.504Z,62.20
2024-04-24T05:27:35.299Z,61.86
2024-04-24T05:30:06.588Z,61.99
2024-04-24T05:32:34.075Z,61.64
2024-04-24T05:35:01.943Z,61.12
2024-04-24T05:37:29.536Z,60.71
2024-04-24T05:39:57.018Z,61.16
2024-04-24T05:42:24.352Z,61.16
2024-04-24T05:44:51.874Z,60.39
2024-04-24T05:47:22.009Z,59.58
2024-04-24T05:49:49.600Z,59.61
2024-04-24T05:52:17.037Z,59.40
2024-04-24T05:54:44.463Z,58.84
2024-04-24T05:57:11.943Z,58.74
2024-04-24T05:59:39.389Z,57.89
2024-04-24T06:02:06.910Z,58.11
2024-04-24T06:04:37.026Z,58.37
2024-04-24T06:07:04.418Z,58.17
2024-04-24T06:09:32.784Z,58.17
2024-04-24T06:12:00.291Z,58.37
2024-04-24T06:14:27.999Z,58.21
2024-04-24T06:16:55.598Z,57.91
2024-04-24T06:19:23.013Z,58.67
2024-04-24T06:21:53.125Z,58.53
2024-04-24T06:24:20.622Z,58.11
2024-04-24T06:26:48.171Z,58.06
2024-04-24T06:29:15.869Z,57.90
2024-04-24T06:31:43.399Z,57.42
2024-04-24T06:34:11.411Z,56.90
2024-04-24T06:36:38.938Z,56.55
2024-04-24T06:39:09.362Z,56.88
2024-04-24T06:41:36.959Z,57.13
2024-04-24T06:44:04.625Z,56.32
2024-04-24T06:46:32.106Z,56.03
2024-04-24T06:48:59.653Z,56.05
2024-04-24T06:51:27.380Z,55.43
2024-04-24T06:53:54.904Z,55.02
2024-04-24T06:56:25.248Z,54.62
2024-04-24T06:58:52.803Z,54.72
2024-04-24T07:01:20.355Z,54.88
2024-04-24T07:03:48.055Z,54.66
2024-04-24T07:06:15.761Z,54.29
2024-04-24T07:08:43.697Z,53.71
2024-04-24T07:11:11.076Z,53.56
2024-04-24T07:13:41.417Z,53.42
2024-04-24T07:16:08.951Z,52.24
2024-04-24T07:18:36.362Z,53.00
2024-04-24T07:21:04.086Z,51.99
2024-04-24T07:23:31.706Z,51.80
2024-04-24T07:25:59.116Z,51.59
2024-04-24T07:28:26.614Z,51.64
2024-04-24T07:30:56.643Z,51.64
2024-04-24T07:33:24.333Z,51.38
2024-04-24T07:35:51.996Z,51.11
2024-04-24T07:38:19.388Z,51.12
2024-04-24T07:40:46.912Z,50.14
2024-04-24T07:43:14.261Z,49.53
2024-04-24T07:45:41.990Z,50.22
2024-04-24T07:48:12.204Z,49.26
2024-04-24T07:50:39.882Z,49.08
2024-04-24T07:53:07.763Z,49.06
2024-04-24T07:55:35.420Z,49.69
2024-04-24T07:58:02.814Z,49.97
2024-04-24T08:00:30.264Z,49.82
2024-04-24T08:02:57.764Z,50.40
2024-04-24T08:05:27.832Z,50.82
2024-04-24T08:07:55.412Z,50.56
2024-04-24T08:10:23.220Z,51.03
2024-04-24T08:12:50.626Z,50.74
2024-04-24T08:15:18.054Z,51.24
2024-04-24T08:17:45.730Z,51.25
2024-04-24T08:20:13.450Z,50.89
2024-04-24T08:22:43.478Z,51.70
2024-04-24T08:25:10.828Z,51.25
2024-04-24T08:27:38.438Z,51.94
2024-04-24T08:30:06.840Z,52.39
2024-04-24T08:32:34.720Z,53.03
2024-04-24T08:35:02.381Z,51.79
2024-04-24T08:37:29.849Z,51.90
2024-04-24T08:39:59.857Z,49.92
2024-04-24T08:42:27.492Z,51.19
2024-04-24T08:44:55.032Z,51.50
2024-04-24T08:47:22.788Z,51.93
2024-04-24T08:49:50.505Z,51.88
2024-04-24T08:52:18.198Z,51.43
2024-04-24T08:54:45.729Z,51.68
2024-04-24T08:57:15.952Z,51.43
2024-04-24T08:59:43.607Z,52.46
2024-04-24T09:02:11.621Z,52.50
2024-04-24T09:04:41.122Z,52.06
2024-04-24T09:07:09.064Z,52.57
2024-04-24T09:09:36.937Z,51.80
2024-04-24T09:12:05.502Z,52.15
2024-04-24T09:14:35.886Z,51.81
2024-04-24T09:17:03.784Z,51.95
2024-04-24T09:19:31.268Z,51.55
2024-04-24T09:21:58.916Z,51.61
2024-04-24T09:24:26.522Z,50.72
2024-04-24T09:26:53.980Z,50.91
2024-04-24T09:29:21.485Z,50.89
2024-04-24T09:31:51.601Z,50.68
2024-04-24T09:34:19.128Z,49.59
2024-04-24T09:36:48.444Z,49.47
2024-04-24T09:39:16.484Z,49.43
2024-04-24T09:41:44.044Z,47.80
2024-04-24T09:44:11.946Z,48.49
2024-04-24T09:46:46.011Z,48.32
2024-04-24T09:49:16.097Z,47.67
2024-04-24T09:51:43.674Z,47.63
2024-04-24T09:54:11.151Z,48.38
2024-04-24T09:56:42.333Z,47.60
2024-04-24T09:59:10.955Z,48.04
2024-04-24T10:01:38.562Z,47.65
2024-04-24T10:04:06.751Z,46.87
2024-04-24T10:06:36.882Z,47.05
2024-04-24T10:09:04.751Z,46.96
2024-04-24T10:11:35.176Z,48.28
2024-04-24T10:14:03.053Z,49.53
2024-04-24T10:16:31.125Z,49.33
2024-04-24T10:18:58.587Z,49.13
2024-04-24T10:21:26.357Z,48.93
2024-04-24T10:23:56.430Z,49.52
2024-04-24T10:26:24.010Z,48.80
2024-04-24T10:28:51.435Z,49.74
2024-04-24T10:31:18.903Z,49.44
2024-04-24T10:33:46.390Z,48.22
2024-04-24T10:36:13.752Z,49.09
2024-04-24T10:38:43.862Z,48.50
2024-04-24T10:41:13.948Z,47.55
2024-04-24T10:43:42.223Z,46.09
2024-04-24T10:46:09.791Z,45.43
2024-04-24T10:48:54.251Z,44.85
2024-04-24T10:51:27.935Z,44.14
2024-04-24T10:53:58.375Z,44.10
2024-04-24T10:56:33.159Z,42.14
2024-04-24T10:59:01.806Z,42.19
2024-04-24T11:01:42.173Z,42.90
2024-04-24T11:04:15.671Z,42.57
2024-04-24T11:06:43.170Z,41.46
2024-04-24T11:09:11.549Z,42.64
2024-04-24T11:11:41.849Z,42.40
2024-04-24T11:14:12.354Z,43.14
2024-04-24T11:16:42.125Z,43.87
2024-04-24T11:19:09.802Z,43.47
2024-04-24T11:21:37.501Z,43.13
2024-04-24T11:24:05.850Z,43.12
2024-04-24T11:26:34.010Z,42.85
2024-04-24T11:29:05.492Z,42.82
2024-04-24T11:31:35.005Z,43.23
2024-04-24T11:34:02.626Z,42.64
2024-04-24T11:36:30.234Z,41.62
2024-04-24T11:38:57.640Z,42.26
2024-04-24T11:41:25.290Z,44.09
2024-04-24T11:43:52.682Z,43.80
2024-04-24T11:46:23.267Z,42.41
2024-04-24T11:48:52.340Z,41.24
2024-04-24T11:51:22.598Z,42.93
2024-04-24T11:53:50.809Z,42.51
2024-04-24T11:56:18.498Z,42.11
2024-04-24T11:58:46.212Z,40.98
2024-04-24T12:01:13.641Z,40.14
2024-04-24T12:03:43.740Z,39.31
2024-04-24T12:06:11.089Z,38.60
2024-04-24T12:08:38.529Z,37.21
2024-04-24T12:11:06.272Z,38.03
2024-04-24T12:13:34.196Z,36.85
2024-04-24T12:16:02.273Z,37.30
2024-04-24T12:18:30.360Z,38.48
2024-04-24T12:21:02.496Z,41.01
2024-04-24T12:23:32.174Z,42.05
2024-04-24T12:25:59.612Z,44.26
2024-04-24T12:28:27.632Z,44.05
2024-04-24T12:30:56.432Z,44.10
2024-04-24T12:33:25.236Z,43.24
2024-04-24T12:35:52.802Z,43.54
2024-04-24T12:38:23.179Z,42.92
2024-04-24T12:40:50.770Z,42.64
2024-04-24T12:43:18.242Z,41.69
2024-04-24T12:45:48.141Z,41.61
2024-04-24T12:48:15.674Z,40.51
2024-04-24T12:50:43.034Z,40.10
2024-04-24T12:53:10.586Z,39.17
2024-04-24T12:55:41.703Z,38.78
2024-04-24T12:58:09.298Z,38.76
2024-04-24T13:00:38.239Z,39.46
2024-04-24T13:03:06.270Z,39.03
2024-04-24T13:05:33.954Z,38.66
2024-04-24T13:08:01.433Z,38.68
2024-04-24T13:10:28.892Z,38.38
2024-04-24T13:12:58.941Z,38.34
2024-04-24T13:15:26.613Z,37.58
2024-04-24T13:17:54.170Z,36.60
2024-04-24T13:20:21.806Z,36.34
2024-04-24T13:22:49.230Z,37.56
2024-04-24T13:25:17.390Z,38.20
2024-04-24T13:27:45.045Z,37.87
2024-04-24T13:30:15.177Z,38.49
2024-04-24T13:32:42.614Z,38.16
2024-04-24T13:35:10.182Z,36.95
2024-04-24T13:37:37.575Z,36.89
2024-04-24T13:40:05.815Z,37.62
2024-04-24T13:42:33.471Z,37.85
2024-04-24T13:45:00.949Z,38.64
2024-04-24T13:47:31.090Z,39.27
2024-04-24T13:49:58.677Z,39.49
2024-04-24T13:52:26.387Z,39.26
2024-04-24T13:54:54.070Z,39.11
2024-04-24T13:57:21.650Z,39.41
2024-04-24T13:59:49.079Z,39.18
2024-04-24T14:02:16.482Z,39.91
2024-04-24T14:04:46.606Z,39.62
2024-04-24T14:07:13.972Z,40.82
2024-04-24T14:09:41.902Z,41.21
2024-04-24T14:12:09.781Z,41.55
2024-04-24T14:14:37.569Z,41.65
2024-04-24T14:17:05.246Z,42.38
2024-04-24T14:19:32.888Z,42.18
2024-04-24T14:22:03.083Z,42.62
2024-04-24T14:24:30.687Z,43.23
2024-04-24T14:26:58.122Z,43.51
2024-04-24T14:29:25.634Z,44.03
2024-04-24T14:31:53.029Z,44.38
2024-04-24T14:34:20.488Z,43.38
2024-04-24T14:36:47.842Z,43.66
2024-04-24T14:39:18.061Z,43.19
2024-04-24T14:41:45.637Z,43.08
2024-04-24T14:44:13.113Z,42.18
2024-04-24T14:46:40.608Z,43.10
2024-04-24T14:49:08.164Z,43.07
2024-04-24T14:51:35.752Z,43.67
2024-04-24T14:54:03.273Z,44.06
2024-04-24T14:56:33.382Z,45.44
2024-04-24T14:59:00.977Z,47.72
2024-04-24T15:01:28.637Z,50.31
2024-04-24T15:03:56.251Z,51.79
2024-04-24T15:06:23.602Z,53.85
2024-04-24T15:08:51.073Z,57.55
2024-04-24T15:11:18.517Z,58.11
2024-04-24T15:13:48.656Z,59.49
2024-04-24T15:16:16.461Z,59.68
2024-04-24T15:18:43.844Z,59.24
2024-04-24T15:21:11.369Z,60.08
2024-04-24T15:23:38.875Z,59.56
2024-04-24T15:26:06.382Z,59.82
2024-04-24T15:28:33.788Z,60.04
2024-04-24T15:31:03.823Z,59.85
2024-04-24T15:33:31.599Z,59.33
2024-04-24T15:35:59.173Z,59.18
2024-04-24T15:38:26.877Z,59.74
2024-04-24T15:40:54.415Z,59.98
2024-04-24T15:43:22.018Z,56.53
2024-04-24T15:45:49.639Z,56.82
2024-04-24T15:48:19.780Z,55.36
2024-04-24T15:50:47.339Z,55.26
2024-04-24T15:53:14.805Z,55.71
2024-04-24T15:55:42.526Z,55.46
2024-04-24T15:58:10.079Z,54.01
2024-04-24T16:00:37.436Z,54.00
2024-04-24T16:03:05.557Z,53.71
2024-04-24T16:05:35.568Z,54.01
2024-04-24T16:08:02.954Z,55.45
2024-04-24T16:10:30.398Z,56.05
2024-04-24T16:12:57.782Z,56.60
2024-04-24T16:15:25.258Z,57.99
2024-04-24T16:17:52.868Z,56.54
2024-04-24T16:20:20.556Z,56.91
2024-04-24T16:22:50.562Z,53.73
2024-04-24T16:25:18.280Z,52.31
2024-04-24T16:27:45.993Z,52.16
2024-04-24T16:30:13.604Z,51.36
2024-04-24T16:32:41.312Z,50.88
2024-04-24T16:35:08.823Z,51.40
2024-04-24T16:37:36.421Z,52.32
2024-04-24T16:40:07.456Z,52.75
2024-04-24T16:42:34.989Z,52.95
2024-04-24T16:45:02.449Z,51.95
2024-04-24T16:47:30.024Z,52.53
2024-04-24T16:49:57.998Z,53.49
2024-04-24T16:52:25.422Z,53.24
2024-04-24T16:54:52.793Z,53.26
2024-04-24T16:57:22.811Z,54.82
2024-04-24T16:59:50.271Z,53.56
2024-04-24T17:02:17.668Z,54.23
2024-04-24T17:04:45.398Z,54.63
2024-04-24T17:07:12.941Z,53.62
2024-04-24T17:09:40.398Z,54.07
2024-04-24T17:12:08.120Z,54.09
2024-04-24T17:14:38.313Z,54.77
2024-04-24T17:17:06.090Z,54.32
2024-04-24T17:19:33.772Z,54.21
2024-04-24T17:22:01.390Z,54.67
2024-04-24T17:24:29.136Z,54.39
2024-04-24T17:26:56.638Z,54.80
2024-04-24T17:29:24.367Z,54.93
2024-04-24T17:31:54.797Z,55.27
2024-04-24T17:34:22.298Z,55.93
2024-04-24T17:36:49.830Z,56.45
2024-04-24T17:39:17.229Z,56.63
2024-04-24T17:41:44.946Z,56.26
2024-04-24T17:44:12.509Z,56.58
2024-04-24T17:46:39.923Z,57.42
2024-04-24T17:49:10.082Z,57.49
2024-04-24T17:51:37.476Z,57.65
2024-04-24T17:54:05.125Z,58.72
2024-04-24T17:56:32.473Z,59.22
2024-04-24T17:59:00.159Z,59.21
2024-04-24T18:01:27.614Z,59.39
2024-04-24T18:03:55.232Z,59.67
2024-04-24T18:06:25.402Z,60.66
2024-04-24T18:08:52.971Z,61.82
2024-04-24T18:11:20.795Z,61.67
2024-04-24T18:13:48.547Z,61.28
2024-04-24T18:16:16.196Z,61.58
2024-04-24T18:18:43.714Z,61.71
2024-04-24T18:21:11.381Z,62.28
2024-04-24T18:23:41.493Z,62.52
2024-04-24T18:26:09.407Z,62.71
2024-04-24T18:28:37.201Z,63.66
2024-04-24T18:31:05.155Z,63.52
2024-04-24T18:33:32.771Z,63.89
2024-04-24T18:36:00.732Z,64.21
2024-04-24T18:38:28.263Z,64.67
2024-04-24T18:40:58.694Z,64.31
2024-04-24T18:43:26.251Z,64.52
2024-04-24T18:45:53.677Z,64.62
2024-04-24T18:48:21.445Z,64.82
2024-04-24T18:50:52.094Z,65.34
2024-04-24T18:53:19.733Z,65.66
2024-04-24T18:55:47.164Z,66.25
2024-04-24T18:58:17.186Z,65.91
2024-04-24T19:00:44.631Z,65.71
2024-04-24T19:03:12.077Z,66.29
2024-04-24T19:05:39.565Z,66.13
2024-04-24T19:08:07.488Z,66.08
2024-04-24T19:10:35.043Z,66.51
2024-04-24T19:13:02.732Z,66.83
2024-04-24T19:15:32.828Z,66.94
2024-04-24T19:18:00.481Z,67.00
2024-04-24T19:20:29.445Z,66.80
2024-04-24T19:22:57.970Z,66.86
2024-04-24T19:25:25.375Z,66.92
2024-04-24T19:27:52.731Z,67.29
2024-04-24T19:30:20.197Z,67.58
2024-04-24T19:32:50.377Z,67.27
2024-04-24T19:35:17.859Z,67.95
2024-04-24T19:37:45.219Z,68.22
2024-04-24T19:40:12.745Z,68.30
2024-04-24T19:42:40.171Z,68.35
2024-04-24T19:45:08.431Z,68.98
2024-04-24T19:47:36.174Z,68.77
2024-04-24T19:50:06.905Z,68.65
2024-04-24T19:52:34.360Z,68.99
2024-04-24T19:55:01.781Z,69.16
2024-04-24T19:57:29.153Z,69.33
2024-04-24T19:59:56.665Z,69.56
2024-04-24T20:02:27.098Z,69.46
2024-04-24T20:04:56.227Z,70.05
2024-04-24T20:07:26.308Z,70.59
2024-04-24T20:09:53.876Z,70.74
2024-04-24T20:12:21.388Z,70.70
2024-04-24T20:14:49.228Z,70.57
2024-04-24T20:17:16.992Z,70.65
2024-04-24T20:19:44.475Z,71.14
2024-04-24T20:22:12.117Z,70.99
2024-04-24T20:24:42.178Z,71.27
2024-04-24T20:27:09.821Z,71.21
2024-04-24T20:29:37.769Z,71.44
2024-04-24T20:32:05.736Z,71.75
2024-04-24T20:34:33.676Z,72.12
2024-04-24T20:37:01.097Z,72.45
2024-04-24T20:39:28.580Z,72.59
2024-04-24T20:41:58.637Z,72.96
2024-04-24T20:44:26.059Z,72.84
2024-04-24T20:46:53.837Z,72.97
2024-04-24T20:49:21.247Z,73.19
2024-04-24T20:51:48.977Z,72.93
2024-04-24T20:54:16.440Z,73.30
2024-04-24T20:56:43.883Z,73.49
2024-04-24T20:59:14.025Z,73.99
2024-04-24T21:01:41.504Z,73.92
2024-04-24T21:04:09.186Z,73.89
2024-04-24T21:06:36.836Z,74.04
2024-04-24T21:09:04.648Z,74.04
2024-04-24T21:11:32.538Z,74.24
2024-04-24T21:13:59.956Z,74.73
2024-04-24T21:16:30.115Z,74.53
2024-04-24T21:18:57.594Z,74.56
2024-04-24T21:21:25.348Z,74.38
2024-04-24T21:23:53.062Z,74.62
2024-04-24T21:26:20.779Z,74.47
2024-04-24T21:28:48.190Z,75.01
2024-04-24T21:31:15.613Z,74.79
2024-04-24T21:33:45.691Z,74.86
2024-04-24T21:36:13.419Z,75.14
2024-04-24T21:38:41.226Z,74.97
2024-04-24T21:41:17.922Z,74.86
2024-04-24T21:43:45.463Z,75.47
2024-04-24T21:46:13.101Z,75.20
2024-04-24T21:48:40.520Z,75.52
2024-04-24T21:51:10.917Z,75.47
2024-04-24T21:53:38.820Z,75.40
2024-04-24T21:56:06.505Z,75.29
2024-04-24T21:58:33.918Z,75.04
2024-04-24T22:01:01.372Z,75.36
2024-04-24T22:03:29.342Z,75.46
2024-04-24T22:05:56.802Z,75.75
2024-04-24T22:08:27.011Z,76.21
2024-04-24T22:10:54.559Z,76.22
2024-04-24T22:13:22.192Z,76.46
2024-04-24T22:15:49.610Z,76.85
2024-04-24T22:18:17.135Z,76.99
2024-04-24T22:20:44.680Z,77.27
2024-04-24T22:23:12.296Z,77.37
2024-04-24T22:25:42.320Z,77.34
2024-04-24T22:28:09.635Z,77.44
2024-04-24T22:30:37.040Z,77.20
2024-04-24T22:33:04.916Z,76.77
2024-04-24T22:35:32.584Z,77.45
2024-04-24T22:38:00.761Z,77.58
2024-04-24T22:40:28.111Z,78.04
2024-04-24T22:42:58.055Z,78.20
2024-04-24T22:45:25.480Z,78.45
2024-04-24T22:47:52.995Z,78.67
2024-04-24T22:50:20.505Z,78.67
2024-04-24T22:52:47.898Z,78.50
2024-04-24T22:55:15.340Z,78.74
2024-04-24T22:57:42.677Z,78.50
2024-04-24T23:00:15.613Z,78.21
2024-04-24T23:02:43.060Z,77.90
2024-04-24T23:05:10.501Z,78.09
2024-04-24T23:07:37.863Z,78.27
2024-04-24T23:10:05.962Z,78.73
2024-04-24T23:12:33.887Z,79.04
2024-04-24T23:15:01.238Z,79.08
2024-04-24T23:17:31.369Z,79.29
2024-04-24T23:19:58.913Z,78.99
2024-04-24T23:22:26.244Z,78.68
2024-04-24T23:24:53.745Z,78.43
2024-04-24T23:27:21.090Z,78.52
2024-04-24T23:29:48.517Z,78.49
2024-04-24T23:32:15.894Z,78.23
2024-04-24T23:34:45.932Z,78.57
2024-04-24T23:37:13.273Z,78.47
2024-04-24T23:39:40.605Z,78.54
2024-04-24T23:42:07.966Z,79.15
2024-04-24T23:44:35.571Z,78.72
2024-04-24T23:47:03.126Z,79.21
2024-04-24T23:49:31.447Z,79.39
2024-04-24T23:52:01.453Z,78.71
2024-04-24T23:54:28.799Z,78.92
2024-04-24T23:56:56.159Z,79.48
2024-04-24T23:59:23.762Z,79.45
